createdAt,value
2023-03-22T00:00:17.612Z,37.00
2023-03-22T00:03:06.863Z,37.00
2023-03-22T00:05:35.810Z,37.00
2023-03-22T00:08:07.272Z,35.50
2023-03-22T00:10:38.181Z,35.25
2023-03-22T00:13:10.810Z,35.25
2023-03-22T00:15:39.793Z,35.00
2023-03-22T00:18:08.283Z,34.00
2023-03-22T00:20:39.537Z,34.00
2023-03-22T00:23:09.168Z,31.75
2023-03-22T00:25:38.213Z,29.25
2023-03-22T00:28:08.176Z,29.25
2023-03-22T00:30:37.531Z,27.75
2023-03-22T00:33:06.892Z,29.75
2023-03-22T00:35:36.152Z,29.75
2023-03-22T00:38:14.235Z,28.00
2023-03-22T00:40:44.285Z,25.75
2023-03-22T00:43:14.632Z,28.25
2023-03-22T00:45:43.627Z,25.25
2023-03-22T00:48:13.246Z,26.00
2023-03-22T00:50:42.415Z,27.25
2023-03-22T00:53:11.118Z,26.75
2023-03-22T00:55:40.156Z,27.00
2023-03-22T00:58:08.894Z,15.00
2023-03-22T01:00:39.520Z,23.00
2023-03-22T01:03:08.769Z,26.50
2023-03-22T01:05:38.902Z,25.00
2023-03-22T01:08:09.460Z,26.50
2023-03-22T01:10:39.297Z,24.50
2023-03-22T01:13:08.884Z,28.50
2023-03-22T01:15:39.340Z,29.75
2023-03-22T01:18:07.937Z,32.00
2023-03-22T01:20:37.513Z,31.75
2023-03-22T01:23:06.312Z,31.00
2023-03-22T01:25:35.222Z,32.00
2023-03-22T01:28:03.904Z,27.75
2023-03-22T01:30:33.214Z,33.00
2023-03-22T01:33:03.308Z,31.50
2023-03-22T01:35:34.106Z,33.25
2023-03-22T01:38:02.852Z,34.25
2023-03-22T01:40:31.856Z,32.50
2023-03-22T01:43:01.969Z,32.00
2023-03-22T01:45:41.595Z,33.00
2023-03-22T01:48:20.939Z,32.25
2023-03-22T01:50:59.862Z,31.25
2023-03-22T01:53:33.702Z,30.50
2023-03-22T01:56:03.864Z,32.00
2023-03-22T01:58:37.160Z,30.25
2023-03-22T02:01:09.633Z,33.00
2023-03-22T02:03:52.411Z,32.00
2023-03-22T02:06:22.518Z,33.75
2023-03-22T02:08:58.546Z,33.75
2023-03-22T02:11:33.530Z,32.00
2023-03-22T02:14:27.488Z,29.75
2023-03-22T02:17:22.963Z,23.25
2023-03-22T02:20:38.423Z,29.25
2023-03-22T02:23:44.241Z,32.25
2023-03-22T02:26:46.975Z,27.00
2023-03-22T02:29:22.415Z,31.00
2023-03-22T02:32:34.157Z,30.00
2023-03-22T02:35:35.057Z,31.25
2023-03-22T02:38:37.776Z,29.75
2023-03-22T02:41:15.712Z,28.00
2023-03-22T02:43:56.832Z,28.25
2023-03-22T02:46:31.930Z,28.00
2023-03-22T02:49:07.879Z,29.75
2023-03-22T02:51:42.518Z,30.25
2023-03-22T02:54:19.664Z,28.75
2023-03-22T02:56:55.314Z,27.75
2023-03-22T02:59:27.222Z,28.75
2023-03-22T03:01:59.365Z,28.25
2023-03-22T03:04:32.255Z,29.50
2023-03-22T03:07:07.232Z,27.00
2023-03-22T03:09:37.718Z,28.00
2023-03-22T03:12:16.023Z,28.75
2023-03-22T03:14:44.875Z,28.25
2023-03-22T03:17:26.875Z,27.00
2023-03-22T03:20:12.707Z,27.00
2023-03-22T03:22:56.217Z,29.50
2023-03-22T03:25:35.189Z,27.00
2023-03-22T03:28:11.462Z,28.25
2023-03-22T03:30:48.087Z,27.25
2023-03-22T03:33:21.638Z,29.00
2023-03-22T03:35:56.020Z,26.00
2023-03-22T03:38:30.090Z,27.25
2023-03-22T03:41:05.056Z,28.00
2023-03-22T03:43:37.281Z,27.00
2023-03-22T03:46:08.835Z,30.25
2023-03-22T03:48:43.661Z,26.50
2023-03-22T03:51:12.658Z,22.50
2023-03-22T03:53:42.233Z,19.50
2023-03-22T03:56:11.749Z,26.50
2023-03-22T03:58:47.054Z,26.75
2023-03-22T04:01:19.693Z,26.50
2023-03-22T04:03:59.185Z,28.25
2023-03-22T04:06:43.797Z,27.00
2023-03-22T04:09:18.333Z,28.25
2023-03-22T04:11:51.711Z,27.00
2023-03-22T04:14:22.379Z,27.00
2023-03-22T04:16:54.479Z,26.00
2023-03-22T04:19:24.872Z,27.00
2023-03-22T04:21:53.824Z,29.50
2023-03-22T04:24:23.715Z,30.25
2023-03-22T04:26:54.985Z,34.75
2023-03-22T04:29:32.385Z,32.75
2023-03-22T04:32:17.040Z,31.00
2023-03-22T04:34:46.444Z,29.00
2023-03-22T04:37:18.261Z,30.50
2023-03-22T04:40:09.367Z,29.75
2023-03-22T04:42:48.096Z,31.00
2023-03-22T04:45:29.296Z,27.75
2023-03-22T04:48:03.374Z,34.50
2023-03-22T04:50:34.174Z,32.75
2023-03-22T04:53:05.833Z,32.75
2023-03-22T04:55:35.292Z,32.75
2023-03-22T04:58:04.198Z,33.50
2023-03-22T05:00:34.533Z,33.75
2023-03-22T05:03:04.493Z,2.00
2023-03-22T05:05:51.085Z,33.00
2023-03-22T05:08:21.359Z,37.67
2023-03-22T05:10:52.244Z,37.33
2023-03-22T05:13:22.055Z,33.25
2023-03-22T05:15:52.648Z,31.00
2023-03-22T05:18:26.904Z,31.25
2023-03-22T05:20:59.746Z,33.00
2023-03-22T05:23:28.442Z,48.75
2023-03-22T05:26:01.666Z,37.67
2023-03-22T05:28:31.946Z,93.50
2023-03-22T05:31:25.388Z,34.25
2023-03-22T05:33:59.049Z,34.00
2023-03-22T05:36:31.005Z,31.50
2023-03-22T05:39:16.046Z,32.25
2023-03-22T05:41:46.613Z,33.00
2023-03-22T05:44:15.990Z,33.00
2023-03-22T05:46:56.259Z,32.50
2023-03-22T05:49:31.845Z,32.50
2023-03-22T05:52:04.435Z,33.25
2023-03-22T05:54:47.190Z,32.00
2023-03-22T05:57:17.142Z,31.00
2023-03-22T05:59:45.765Z,31.25
2023-03-22T06:02:22.443Z,30.75
2023-03-22T06:04:52.561Z,31.00
2023-03-22T06:07:22.702Z,27.50
2023-03-22T06:09:59.162Z,28.50
2023-03-22T06:12:31.419Z,31.00
2023-03-22T06:15:18.631Z,28.75
2023-03-22T06:18:12.993Z,27.50
2023-03-22T06:20:45.747Z,30.50
2023-03-22T06:23:22.924Z,29.50
2023-03-22T06:25:51.682Z,28.00
2023-03-22T06:28:21.490Z,29.00
2023-03-22T06:30:52.752Z,28.00
2023-03-22T06:33:32.143Z,14.75
2023-03-22T06:36:07.584Z,28.75
2023-03-22T06:38:52.462Z,27.00
2023-03-22T06:41:21.551Z,28.50
2023-03-22T06:43:52.801Z,26.75
2023-03-22T06:46:41.507Z,27.25
2023-03-22T06:49:29.351Z,28.00
2023-03-22T06:51:59.383Z,27.00
2023-03-22T06:54:29.375Z,29.00
2023-03-22T06:56:57.997Z,25.25
2023-03-22T06:59:27.258Z,26.50
2023-03-22T07:01:56.045Z,23.00
2023-03-22T07:04:25.795Z,25.75
2023-03-22T07:06:56.883Z,27.50
2023-03-22T07:09:40.341Z,28.25
2023-03-22T07:12:10.030Z,26.50
2023-03-22T07:14:39.648Z,26.75
2023-03-22T07:17:46.566Z,22.75
2023-03-22T07:20:16.324Z,23.00
2023-03-22T07:22:47.051Z,23.25
2023-03-22T07:25:16.231Z,23.00
2023-03-22T07:27:46.203Z,21.75
2023-03-22T07:30:16.023Z,26.00
2023-03-22T07:32:47.981Z,23.00
2023-03-22T07:35:18.966Z,24.25
2023-03-22T07:37:52.243Z,21.75
2023-03-22T07:40:27.200Z,21.25
2023-03-22T07:42:58.992Z,22.25
2023-03-22T07:45:46.764Z,24.75
2023-03-22T07:48:39.158Z,22.25
2023-03-22T07:51:43.327Z,11.00
2023-03-22T07:54:22.734Z,24.75
2023-03-22T07:56:59.886Z,25.75
2023-03-22T07:59:28.871Z,22.75
2023-03-22T08:01:58.413Z,25.75
2023-03-22T08:04:32.085Z,24.00
2023-03-22T08:07:11.597Z,22.75
2023-03-22T08:09:41.669Z,23.25
2023-03-22T08:12:10.742Z,22.75
2023-03-22T08:14:40.934Z,23.75
2023-03-22T08:17:17.354Z,24.50
2023-03-22T08:19:46.766Z,27.00
2023-03-22T08:22:26.090Z,24.75
2023-03-22T08:25:19.375Z,24.25
2023-03-22T08:27:49.196Z,24.75
2023-03-22T08:30:18.039Z,24.50
2023-03-22T08:32:47.139Z,22.25
2023-03-22T08:35:15.788Z,22.75
2023-03-22T08:37:44.820Z,22.00
2023-03-22T08:40:13.948Z,24.25
2023-03-22T08:42:48.916Z,25.00
2023-03-22T08:45:18.281Z,24.00
2023-03-22T08:47:54.843Z,25.25
2023-03-22T08:50:26.974Z,24.00
2023-03-22T08:53:13.878Z,26.75
2023-03-22T08:55:46.395Z,26.00
2023-03-22T08:58:19.633Z,25.75
2023-03-22T09:01:07.577Z,27.25
2023-03-22T09:03:45.777Z,25.00
2023-03-22T09:06:15.144Z,26.25
2023-03-22T09:08:45.610Z,25.50
2023-03-22T09:11:18.042Z,26.00
2023-03-22T09:13:51.273Z,28.00
2023-03-22T09:16:20.843Z,27.50
2023-03-22T09:18:50.466Z,26.25
2023-03-22T09:21:23.105Z,29.00
2023-03-22T09:23:55.784Z,28.25
2023-03-22T09:26:31.487Z,29.25
2023-03-22T09:29:03.301Z,28.00
2023-03-22T09:31:32.228Z,26.00
2023-03-22T09:34:16.413Z,28.25
2023-03-22T09:36:45.469Z,29.50
2023-03-22T09:39:16.541Z,28.50
2023-03-22T09:41:51.733Z,27.75
2023-03-22T09:44:29.759Z,29.00
2023-03-22T09:47:02.193Z,26.25
2023-03-22T09:49:52.952Z,27.00
2023-03-22T09:52:22.884Z,28.50
2023-03-22T09:54:53.200Z,25.25
2023-03-22T09:57:30.258Z,28.00
2023-03-22T10:00:11.844Z,27.25
2023-03-22T10:02:54.522Z,25.00
2023-03-22T10:05:30.808Z,29.00
2023-03-22T10:08:33.914Z,28.75
2023-03-22T10:11:03.916Z,28.50
2023-03-22T10:13:40.480Z,26.25
2023-03-22T10:16:14.898Z,28.00
2023-03-22T10:18:48.290Z,24.25
2023-03-22T10:21:20.375Z,26.00
2023-03-22T10:23:56.290Z,25.00
2023-03-22T10:26:30.563Z,26.00
2023-03-22T10:29:03.991Z,25.50
2023-03-22T10:31:35.851Z,24.75
2023-03-22T10:34:08.043Z,25.25
2023-03-22T10:36:40.491Z,23.25
2023-03-22T10:39:18.379Z,22.75
2023-03-22T10:41:49.264Z,20.75
2023-03-22T10:44:21.341Z,19.00
2023-03-22T10:46:53.805Z,21.50
2023-03-22T10:49:28.523Z,19.25
2023-03-22T10:52:01.485Z,22.25
2023-03-22T10:54:30.421Z,21.00
2023-03-22T10:56:59.449Z,22.75
2023-03-22T10:59:46.025Z,21.00
2023-03-22T11:02:23.079Z,23.25
2023-03-22T11:04:53.876Z,19.00
2023-03-22T11:07:32.900Z,21.00
2023-03-22T11:10:24.300Z,22.75
2023-03-22T11:12:56.152Z,21.25
2023-03-22T11:15:28.427Z,19.25
2023-03-22T11:18:06.228Z,20.25
2023-03-22T11:20:36.300Z,16.75
2023-03-22T11:23:07.050Z,18.00
2023-03-22T11:25:38.074Z,22.00
2023-03-22T11:28:17.123Z,17.75
2023-03-22T11:31:00.684Z,18.75
2023-03-22T11:33:31.848Z,15.00
2023-03-22T11:36:03.494Z,14.40
2023-03-22T11:38:38.360Z,13.80
2023-03-22T11:41:13.059Z,14.40
2023-03-22T11:43:48.500Z,16.00
2023-03-22T11:46:20.088Z,13.00
2023-03-22T11:48:52.995Z,9.00
2023-03-22T11:51:30.991Z,16.75
2023-03-22T11:54:07.971Z,17.00
2023-03-22T11:56:42.603Z,17.50
2023-03-22T11:59:16.765Z,17.50
2023-03-22T12:01:50.328Z,12.60
2023-03-22T12:04:26.826Z,13.00
2023-03-22T12:06:59.233Z,15.25
2023-03-22T12:09:39.245Z,13.20
2023-03-22T12:12:15.125Z,19.75
2023-03-22T12:14:51.376Z,14.00
2023-03-22T12:17:30.037Z,15.00
2023-03-22T12:20:08.636Z,14.25
2023-03-22T12:22:42.245Z,13.00
2023-03-22T12:25:17.068Z,15.00
2023-03-22T12:27:51.222Z,14.00
2023-03-22T12:30:25.404Z,15.00
2023-03-22T12:33:01.695Z,16.40
2023-03-22T12:35:36.268Z,13.00
2023-03-22T12:38:19.977Z,10.60
2023-03-22T12:40:50.996Z,9.20
2023-03-22T12:43:33.515Z,9.00
2023-03-22T12:46:09.687Z,10.60
2023-03-22T12:48:46.435Z,11.20
2023-03-22T12:51:17.530Z,10.20
2023-03-22T12:53:48.962Z,8.00
2023-03-22T12:56:21.365Z,9.00
2023-03-22T12:58:56.222Z,11.40
2023-03-22T13:01:35.747Z,11.60
2023-03-22T13:04:31.396Z,12.60
2023-03-22T13:07:13.027Z,14.40
2023-03-22T13:09:43.931Z,14.00
2023-03-22T13:12:32.749Z,16.50
2023-03-22T13:15:41.353Z,15.20
2023-03-22T13:18:38.741Z,15.25
2023-03-22T13:21:15.498Z,10.00
2023-03-22T13:24:01.859Z,12.20
2023-03-22T13:26:39.536Z,14.20
2023-03-22T13:29:12.569Z,12.00
2023-03-22T13:31:45.415Z,13.80
2023-03-22T13:34:19.058Z,13.75
2023-03-22T13:36:53.979Z,14.00
2023-03-22T13:39:25.604Z,16.75
2023-03-22T13:42:19.833Z,16.25
2023-03-22T13:44:59.175Z,13.00
2023-03-22T13:47:34.545Z,16.00
2023-03-22T13:50:11.272Z,12.60
2023-03-22T13:52:43.423Z,12.00
2023-03-22T13:55:41.321Z,12.20
2023-03-22T13:58:33.102Z,13.40
2023-03-22T14:01:02.792Z,14.00
2023-03-22T14:03:35.063Z,13.20
2023-03-22T14:06:15.868Z,17.00
2023-03-22T14:08:47.337Z,13.40
2023-03-22T14:11:26.515Z,12.00
2023-03-22T14:14:00.693Z,13.80
2023-03-22T14:16:37.905Z,12.40
2023-03-22T14:19:08.582Z,12.00
2023-03-22T14:21:40.458Z,12.00
